Airfield :
LOGIN :

Register | Disclaimer

   EN    FR    IT 

 










Legend :    VFR   Marginal VFR   IFR   Intensive IFR   Very Intensive IFR
Visi :
Ceiling :
>= 8 km
>= 3000ft
5 to 8 km
1000 to 3000 ft
1500m to 5 km
500 to 1000 ft
800 to 1500m
200 to 500 ft
< 800m
< 200 ft
Symbols :   Thunderstorms  Fog  Heavy snow  Heavy precipitations  Wind > 20 kt
SIGMETs :     Misc.  Thunderstorms  Icing  Turbulence  Mountain Waves  Volcanic Ashes






- Airport Elevation : 68 ft
- IATA code : AGH


ESTA - Ängelholm-Helsingborg

CURRENT METAR :
  • 141220Z 15009KT 8000 -DZ BKN007 02/02 Q0981

EXPIRED METARs :
  • 141150Z 15009KT 8000 -DZ BKN007 02/01 Q0981
  • 141120Z 17009KT 6000 -RASN BKN007 02/01 Q0981
  • 141050Z 16010KT 6000 -RA BKN007 02/01 Q0981
  • 141020Z 17010KT 6000 -RA SCT007 BKN012 02/01 Q0981
  • 140950Z 17010KT 5000 -RA BKN007 OVC009 03/02 Q0981

TAF TAF ESTA
Valid from the 14 at 12:00 until the 14 at 16:00 UTC


141106Z 1412/1416 15012KT 5000 -RADZ BR SCT008 BKN010
TEMPO 1412/1416 2000 BKN004



MET'MAP, your aeronautical weather chart ! - Copyright ORBIFLY December 2007 - Disclaimer

ORBIFLY MET'MAP TEAM :

Programming & Development : Alexandra Zaïnal
Concept & original design : Baudouin d'Aumeries
Assistance for programming : Marc-Olivier Méhu
Technical & hardware support : Manuel Goepfert

Contact : metmap@orbifly.com




SOURCES & CREDITS :

   NOAA